Syracuse Hancock International Airport
KSYR : now visible

Airfield :











YOU CAN JOIN US ON...

 
LOGIN :

Register | Disclaimer

   EN    FR    IT 

 









Legend :    VFR   Marginal VFR   IFR   Intensive IFR   Very Intensive IFR
Visi :
Ceiling :
>= 8 km
>= 3000ft
5 to 8 km
1000 to 3000 ft
1500m to 5 km
500 to 1000 ft
800 to 1500m
200 to 500 ft
< 800m
< 200 ft
Symbols :   Thunderstorms  Fog  Heavy snow  Heavy precipitations  Wind > 20 kt






- Airport Elevation : 421 ft
- IATA code : SYR


KSYR - Syracuse Hancock International

CURRENT METAR :
  • 252254Z 11003KT 10SM R28/4000VP6000FT SCT050 BKN065 BKN250 28/20 A3003 RMK AO2 SLP163 T02830200 $

EXPIRED METARs :
  • 252154Z 00000KT 10SM BKN050 BKN250 28/18 A3003 RMK AO2 SLP163 T02830183 $
  • 252054Z 14005KT 10SM SCT045 SCT055 BKN250 28/18 A3005 RMK AO2 SLP169 T02830178 58015 $

TAF KSYR
Valid from the 25 at 18:00 until the 26 at 18:00 UTC


251737Z 2518/2618 18007KT P6SM FEW050 SCT250
TEMPO 2520/2523 -TSRA BKN035CB
FM260000 16004KT P6SM SCT050 SCT250
FM261300 VRB04KT P6SM SCT250
KZBW FIR / North America



MET'MAP, your aeronautical weather chart ! - Copyright ORBIFLY December 2007 - Disclaimer

ORBIFLY MET'MAP TEAM :

Programming & Development : Alexandra Zaïnal
Concept & original design : Baudouin d'Aumeries
Assistance for programming : Marc-Olivier Méhu
Technical & hardware support : Manuel Goepfert

Contact : metmap@orbifly.com




SOURCES & CREDITS :

   NOAA       Earth
Advisory